Time,TemperatureF,DewpointF,PressureIn,WindDirection,WindDirectionDegrees,WindSpeedMPH,WindSpeedGustMPH,Humidity,HourlyPrecipIn,Conditions,Clouds,dailyrainin,SoftwareType,DateUTC
2013-04-26 00:00:00,60.3,57.4,30.19,WNW,300,0.0,0.0,90,0.00,,CLR,0.00,VWS V14.01,2013-04-26 04:00:00,
2013-04-26 00:03:00,60.2,57.3,30.19,WNW,301,0.0,0.0,90,0.00,,CLR,0.00,VWS V14.01,2013-04-26 04:03:00,
2013-04-26 00:08:00,60.1,57.5,30.19,WNW,300,0.0,0.0,91,0.00,,CLR,0.00,VWS V14.01,2013-04-26 04:08:00,
2013-04-26 00:15:00,60.0,57.4,30.19,WNW,301,0.0,0.0,91,0.00,,CLR,0.00,VWS V14.01,2013-04-26 04:15:00,
2013-04-26 00:17:00,60.0,57.4,30.19,WNW,301,0.0,0.0,91,0.00,,CLR,0.00,VWS V14.01,2013-04-26 04:17:00,
2013-04-26 00:26:00,59.8,57.2,30.19,WNW,301,0.0,1.0,91,0.00,,CLR,0.00,VWS V14.01,2013-04-26 04:26:00,
2013-04-26 00:30:00,59.7,57.4,30.19,WNW,301,0.0,1.0,92,0.00,,CLR,0.00,VWS V14.01,2013-04-26 04:30:00,
2013-04-26 00:31:00,59.7,57.4,30.19,WNW,300,0.0,0.0,92,0.00,,CLR,0.00,VWS V14.01,2013-04-26 04:31:00,
2013-04-26 00:40:00,59.4,57.1,30.19,WNW,301,0.0,0.0,92,0.00,,CLR,0.00,VWS V14.01,2013-04-26 04:40:00,
2013-04-26 00:45:00,59.2,56.9,30.19,WNW,301,0.0,0.0,92,0.00,,CLR,0.00,VWS V14.01,2013-04-26 04:45:00,
2013-04-26 00:50:00,59.0,56.7,30.19,WNW,301,0.0,0.0,92,0.00,,CLR,0.00,VWS V14.01,2013-04-26 04:50:00,
2013-04-26 00:59:00,59.0,56.7,30.19,WNW,301,0.0,0.0,92,0.00,,CLR,0.00,VWS V14.01,2013-04-26 04:59:00,
2013-04-26 01:00:00,58.9,56.6,30.19,WNW,301,0.0,0.0,92,0.00,,CLR,0.00,VWS V14.01,2013-04-26 05:00:00,
2013-04-26 01:08:00,58.3,56.0,30.19,WNW,301,0.0,0.0,92,0.00,,CLR,0.00,VWS V14.01,2013-04-26 05:08:00,
2013-04-26 01:15:00,58.0,55.7,30.19,WNW,301,0.0,0.0,92,0.00,,CLR,0.00,VWS V14.01,2013-04-26 05:15:00,
2013-04-26 01:22:00,57.8,55.8,30.19,WNW,300,0.0,0.0,93,0.00,,CLR,0.00,VWS V14.01,2013-04-26 05:22:00,
2013-04-26 01:30:00,57.5,55.5,30.19,WNW,301,0.0,0.0,93,0.00,,CLR,0.00,VWS V14.01,2013-04-26 05:30:00,
2013-04-26 01:36:00,57.3,55.3,30.19,WNW,300,0.0,0.0,93,0.00,,CLR,0.00,VWS V14.01,2013-04-26 05:36:00,
2013-04-26 01:45:00,57.5,55.8,30.19,WNW,300,0.0,0.0,94,0.00,,CLR,0.00,VWS V14.01,2013-04-26 05:45:00,
2013-04-26 01:50:00,57.6,55.9,30.19,WNW,301,0.0,0.0,94,0.00,,CLR,0.00,VWS V14.01,2013-04-26 05:50:00,
2013-04-26 02:00:00,58.0,56.3,30.19,WNW,301,0.0,0.0,94,0.00,,CLR,0.00,VWS V14.01,2013-04-26 06:00:00,
2013-04-26 02:09:00,58.6,57.2,30.20,WNW,300,0.0,0.0,95,0.00,,CLR,0.00,VWS V14.01,2013-04-26 06:09:00,
2013-04-26 02:15:00,59.0,57.6,30.19,WNW,300,0.0,0.0,95,0.00,,CLR,0.00,VWS V14.01,2013-04-26 06:15:00,
2013-04-26 02:23:00,59.6,58.5,30.19,WNW,301,0.0,0.0,96,0.00,,CLR,0.00,VWS V14.01,2013-04-26 06:23:00,
2013-04-26 02:30:00,60.2,59.1,30.19,WNW,301,0.0,0.0,96,0.00,,CLR,0.00,VWS V14.01,2013-04-26 06:30:00,
2013-04-26 02:37:00,60.5,59.4,30.19,WNW,301,0.0,0.0,96,0.00,,CLR,0.00,VWS V14.01,2013-04-26 06:37:00,
2013-04-26 02:45:00,60.7,59.6,30.19,WNW,301,0.0,0.0,96,0.00,,CLR,0.00,VWS V14.01,2013-04-26 06:45:00,
2013-04-26 02:51:00,60.6,59.5,30.19,WNW,301,0.0,0.0,96,0.00,,CLR,0.00,VWS V14.01,2013-04-26 06:51:00,
2013-04-26 03:00:00,60.7,59.6,30.19,WNW,301,0.0,0.0,96,0.00,,CLR,0.00,VWS V14.01,2013-04-26 07:00:00,
2013-04-26 03:10:00,60.6,59.5,30.19,WNW,301,0.0,0.0,96,0.00,,FEW005,0.00,VWS V14.01,2013-04-26 07:10:00,
2013-04-26 03:15:00,60.5,59.4,30.19,WNW,301,0.0,1.0,96,0.00,,FEW005,0.00,VWS V14.01,2013-04-26 07:15:00,
2013-04-26 03:23:00,60.1,59.0,30.19,WNW,301,0.0,1.0,96,0.00,,FEW005,0.00,VWS V14.01,2013-04-26 07:23:00,
2013-04-26 03:30:00,59.9,58.8,30.19,WNW,300,0.0,1.0,96,0.00,,FEW005,0.00,VWS V14.01,2013-04-26 07:30:00,
2013-04-26 03:37:00,59.7,58.6,30.20,WNW,301,0.0,2.0,96,0.00,,BKN005,0.00,VWS V14.01,2013-04-26 07:37:00,
2013-04-26 03:45:00,59.5,58.4,30.20,WNW,301,0.0,2.0,96,0.00,,BKN005,0.00,VWS V14.01,2013-04-26 07:45:00,
2013-04-26 03:51:00,59.2,58.1,30.20,WNW,300,0.0,2.0,96,0.00,,BKN005,0.00,VWS V14.01,2013-04-26 07:51:00,
2013-04-26 04:00:00,59.0,57.9,30.20,WNW,300,0.0,2.0,96,0.00,,BKN005,0.00,VWS V14.01,2013-04-26 08:00:00,
2013-04-26 04:05:00,59.0,57.9,30.20,WNW,301,0.0,0.0,96,0.00,,,0.00,VWS V14.01,2013-04-26 08:05:00,
2013-04-26 04:15:00,58.8,57.7,30.20,WNW,301,0.0,0.0,96,0.00,,,0.00,VWS V14.01,2013-04-26 08:15:00,
2013-04-26 04:24:00,58.7,57.6,30.20,WNW,300,0.0,0.0,96,0.00,,,0.00,VWS V14.01,2013-04-26 08:24:00,
2013-04-26 04:30:00,58.6,57.5,30.20,WNW,300,0.0,0.0,96,0.00,,,0.00,VWS V14.01,2013-04-26 08:30:00,
2013-04-26 04:38:00,58.7,57.6,30.21,WNW,301,0.0,0.0,96,0.00,,,0.00,VWS V14.01,2013-04-26 08:38:00,
2013-04-26 04:45:00,58.7,57.6,30.21,WNW,300,0.0,1.0,96,0.00,,,0.00,VWS V14.01,2013-04-26 08:45:00,
2013-04-26 04:52:00,58.6,57.5,30.22,WNW,300,0.0,2.0,96,0.00,,,0.00,VWS V14.01,2013-04-26 08:52:00,
2013-04-26 05:00:00,58.5,57.4,30.22,WNW,300,0.0,2.0,96,0.00,,CLR,0.00,VWS V14.01,2013-04-26 09:00:00,
2013-04-26 05:01:00,58.4,57.3,30.23,WNW,300,0.0,0.0,96,0.00,,,0.00,VWS V14.01,2013-04-26 09:01:00,
2013-04-26 05:11:00,58.3,57.2,30.23,WNW,301,0.0,1.0,96,0.00,,,0.00,VWS V14.01,2013-04-26 09:11:00,
2013-04-26 05:15:00,58.3,57.2,30.23,WNW,300,0.0,1.0,96,0.00,,CLR,0.00,VWS V14.01,2013-04-26 09:15:00,
2013-04-26 05:20:00,58.3,57.2,30.23,WNW,301,0.0,0.0,96,0.00,,,0.00,VWS V14.01,2013-04-26 09:20:00,
2013-04-26 05:29:00,58.2,57.1,30.23,WNW,301,0.0,0.0,96,0.00,,,0.00,VWS V14.01,2013-04-26 09:29:00,
2013-04-26 05:30:00,58.2,56.8,30.23,WNW,301,0.0,0.0,95,0.00,,CLR,0.00,VWS V14.01,2013-04-26 09:30:00,
2013-04-26 05:39:00,58.1,56.7,30.23,WNW,300,0.0,0.0,95,0.00,,,0.00,VWS V14.01,2013-04-26 09:39:00,
2013-04-26 05:45:00,58.1,56.7,30.23,WNW,301,0.0,1.0,95,0.00,,,0.00,VWS V14.01,2013-04-26 09:45:00,
2013-04-26 05:53:00,58.1,56.7,30.23,WNW,300,0.0,1.0,95,0.00,,,0.00,VWS V14.01,2013-04-26 09:53:00,
2013-04-26 06:00:00,58.1,56.7,30.24,WNW,301,0.0,1.0,95,0.00,,,0.00,VWS V14.01,2013-04-26 10:00:00,
2013-04-26 06:07:00,58.1,56.7,30.24,WNW,300,0.0,1.0,95,0.00,,SCT007,0.00,VWS V14.01,2013-04-26 10:07:00,
2013-04-26 06:15:00,58.1,56.7,30.25,WNW,301,0.0,1.0,95,0.00,,SCT007,0.00,VWS V14.01,2013-04-26 10:15:00,
2013-04-26 06:21:00,58.2,56.8,30.25,WNW,301,0.0,0.0,95,0.00,,SCT007,0.00,VWS V14.01,2013-04-26 10:21:00,
2013-04-26 06:30:00,58.2,56.8,30.25,WNW,301,0.0,2.0,95,0.00,,SCT007,0.00,VWS V14.01,2013-04-26 10:30:00,
2013-04-26 06:39:00,58.2,56.5,30.25,WNW,301,0.0,2.0,94,0.00,,,0.00,VWS V14.01,2013-04-26 10:39:00,
2013-04-26 06:45:00,58.2,56.5,30.25,WNW,301,0.0,2.0,94,0.00,,,0.00,VWS V14.01,2013-04-26 10:45:00,
2013-04-26 06:53:00,58.3,56.6,30.26,WNW,301,0.0,1.0,94,0.00,,,0.00,VWS V14.01,2013-04-26 10:53:00,
2013-04-26 07:00:00,58.3,56.6,30.26,WNW,301,0.0,2.0,94,0.00,,,0.00,VWS V14.01,2013-04-26 11:00:00,
2013-04-26 07:07:00,58.4,56.7,30.27,WNW,301,0.0,0.0,94,0.00,,,0.00,VWS V14.01,2013-04-26 11:07:00,
2013-04-26 07:15:00,58.5,56.8,30.27,WNW,301,0.0,0.0,94,0.00,,,0.00,VWS V14.01,2013-04-26 11:15:00,
2013-04-26 07:21:00,58.6,56.9,30.28,WNW,301,1.0,1.0,94,0.00,,,0.00,VWS V14.01,2013-04-26 11:21:00,
2013-04-26 07:30:00,58.6,56.9,30.28,WNW,300,0.0,1.0,94,0.00,,,0.00,VWS V14.01,2013-04-26 11:30:00,
2013-04-26 07:35:00,58.7,57.0,30.29,WNW,301,0.0,0.0,94,0.00,,,0.00,VWS V14.01,2013-04-26 11:35:00,
2013-04-26 07:44:00,58.7,57.0,30.29,WNW,301,0.0,1.0,94,0.00,,,0.00,VWS V14.01,2013-04-26 11:44:00,
2013-04-26 07:45:00,58.7,57.0,30.29,WNW,301,0.0,1.0,94,0.00,,CLR,0.00,VWS V14.01,2013-04-26 11:45:00,
2013-04-26 07:54:00,58.7,57.0,30.29,WNW,301,0.0,2.0,94,0.00,,,0.00,VWS V14.01,2013-04-26 11:54:00,
2013-04-26 08:00:00,58.7,57.0,30.30,WNW,300,0.0,2.0,94,0.00,,,0.00,VWS V14.01,2013-04-26 12:00:00,
2013-04-26 08:08:00,59.0,57.3,30.30,WNW,300,1.0,1.0,94,0.00,,,0.00,VWS V14.01,2013-04-26 12:08:00,
2013-04-26 08:15:00,59.0,57.3,30.31,WNW,301,0.0,3.0,94,0.00,,,0.00,VWS V14.01,2013-04-26 12:15:00,
2013-04-26 08:22:00,59.0,57.3,30.31,NNE,19,0.0,4.0,94,0.00,,,0.00,VWS V14.01,2013-04-26 12:22:00,
2013-04-26 08:30:00,59.1,57.1,30.31,NE,34,0.0,4.0,93,0.00,,,0.00,VWS V14.01,2013-04-26 12:30:00,
2013-04-26 08:36:00,59.5,57.5,30.32,NE,35,0.0,2.0,93,0.00,,,0.00,VWS V14.01,2013-04-26 12:36:00,
2013-04-26 08:45:00,59.9,57.3,30.32,NE,35,0.0,2.0,91,0.00,,,0.00,VWS V14.01,2013-04-26 12:45:00,
2013-04-26 08:54:00,60.0,57.1,30.32,NNW,338,0.0,4.0,90,0.00,,,0.00,VWS V14.01,2013-04-26 12:54:00,
2013-04-26 09:00:00,60.2,57.0,30.32,North,355,0.0,4.0,89,0.00,,,0.00,VWS V14.01,2013-04-26 13:00:00,
2013-04-26 09:08:00,60.3,57.0,30.32,North,355,0.0,2.0,89,0.00,,OVC008,0.00,VWS V14.01,2013-04-26 13:08:00,
2013-04-26 09:15:00,60.5,56.9,30.32,NW,315,1.0,3.0,88,0.00,,OVC008,0.00,VWS V14.01,2013-04-26 13:15:00,
2013-04-26 09:22:00,60.9,57.0,30.33,NW,313,0.0,4.0,87,0.00,,OVC008,0.00,VWS V14.01,2013-04-26 13:22:00,
2013-04-26 09:30:00,61.6,57.4,30.33,NNW,346,0.0,4.0,86,0.00,,OVC008,0.00,VWS V14.01,2013-04-26 13:30:00,
2013-04-26 09:36:00,62.5,57.9,30.33,NNW,346,0.0,2.0,85,0.00,,OVC010,0.00,VWS V14.01,2013-04-26 13:36:00,
2013-04-26 09:45:00,63.0,57.8,30.33,NNE,22,0.0,5.0,83,0.00,,OVC010,0.00,VWS V14.01,2013-04-26 13:45:00,
2013-04-26 09:50:00,63.4,57.8,30.33,NE,36,0.0,3.0,82,0.00,,OVC010,0.00,VWS V14.01,2013-04-26 13:50:00,
2013-04-26 10:00:00,64.2,58.3,30.34,NE,38,0.0,3.0,81,0.00,,OVC010,0.00,VWS V14.01,2013-04-26 14:00:00,
2013-04-26 10:09:00,65.1,58.8,30.34,NNE,31,0.0,2.0,80,0.00,,OVC012,0.00,VWS V14.01,2013-04-26 14:09:00,
2013-04-26 10:15:00,65.6,59.3,30.34,NW,319,0.0,4.0,80,0.00,,OVC012,0.00,VWS V14.01,2013-04-26 14:15:00,
2013-04-26 10:23:00,65.6,58.9,30.35,North,5,1.0,7.0,79,0.00,,OVC012,0.00,VWS V14.01,2013-04-26 14:23:00,
2013-04-26 10:30:00,65.8,59.1,30.35,NNW,330,0.0,7.0,79,0.00,,OVC012,0.00,VWS V14.01,2013-04-26 14:30:00,
2013-04-26 10:37:00,66.1,59.0,30.35,SE,140,0.0,4.0,78,0.00,,OVC016,0.00,VWS V14.01,2013-04-26 14:37:00,
2013-04-26 10:45:00,66.7,58.5,30.35,ENE,67,1.0,4.0,75,0.00,,OVC016,0.00,VWS V14.01,2013-04-26 14:45:00,
2013-04-26 10:51:00,66.7,58.9,30.35,WNW,302,3.0,5.0,76,0.00,,OVC016,0.00,VWS V14.01,2013-04-26 14:51:00,
2013-04-26 11:00:00,67.8,60.0,30.36,NW,325,1.0,5.0,76,0.00,,OVC016,0.00,VWS V14.01,2013-04-26 15:00:00,
2013-04-26 11:09:00,68.7,59.7,30.35,NW,326,2.0,2.0,73,0.00,,BKN019,0.00,VWS V14.01,2013-04-26 15:09:00,
2013-04-26 11:15:00,68.9,58.7,30.35,NE,36,0.0,5.0,70,0.00,,BKN019,0.00,VWS V14.01,2013-04-26 15:15:00,
2013-04-26 11:23:00,68.7,58.5,30.35,NNE,30,1.0,4.0,70,0.00,,BKN019,0.00,VWS V14.01,2013-04-26 15:23:00,
2013-04-26 11:30:00,68.7,58.5,30.35,NE,42,0.0,5.0,70,0.00,,BKN019,0.00,VWS V14.01,2013-04-26 15:30:00,
2013-04-26 11:37:00,69.1,58.5,30.35,ENE,61,1.0,4.0,69,0.00,,BKN019,0.00,VWS V14.01,2013-04-26 15:37:00,
2013-04-26 11:45:00,69.3,59.5,30.35,NNE,20,0.0,6.0,71,0.00,,BKN019,0.00,VWS V14.01,2013-04-26 15:45:00,
2013-04-26 11:51:00,69.9,59.3,30.34,ENE,61,0.0,5.0,69,0.00,,BKN019,0.00,VWS V14.01,2013-04-26 15:51:00,
2013-04-26 12:00:00,70.8,59.7,30.34,ENE,61,0.0,5.0,68,0.00,,BKN019,0.00,VWS V14.01,2013-04-26 16:00:00,
2013-04-26 12:05:00,71.1,58.8,30.34,ENE,61,0.0,2.0,65,0.00,,BKN032,0.00,VWS V14.01,2013-04-26 16:05:00,
2013-04-26 12:15:00,70.6,58.3,30.33,ENE,76,2.0,4.0,65,0.00,,BKN032,0.00,VWS V14.01,2013-04-26 16:15:00,
2013-04-26 12:24:00,70.2,57.9,30.33,ENE,61,0.0,5.0,65,0.00,,BKN032,0.00,VWS V14.01,2013-04-26 16:24:00,
2013-04-26 12:30:00,70.9,58.1,30.33,ENE,61,0.0,5.0,64,0.00,,BKN032,0.00,VWS V14.01,2013-04-26 16:30:00,
2013-04-26 12:38:00,71.7,57.5,30.33,ENE,74,0.0,4.0,61,0.00,,BKN032,0.00,VWS V14.01,2013-04-26 16:38:00,
2013-04-26 12:45:00,72.1,57.5,30.32,ENE,76,0.0,4.0,60,0.00,,BKN032,0.00,VWS V14.01,2013-04-26 16:45:00,
2013-04-26 12:52:00,72.4,56.3,30.32,East,82,0.0,4.0,57,0.00,,BKN032,0.00,VWS V14.01,2013-04-26 16:52:00,
2013-04-26 13:00:00,72.8,56.2,30.31,East,84,2.0,4.0,56,0.00,,BKN032,0.00,VWS V14.01,2013-04-26 17:00:00,
2013-04-26 13:06:00,72.7,55.6,30.32,ENE,74,0.0,5.0,55,0.00,,FEW042,0.00,VWS V14.01,2013-04-26 17:06:00,
2013-04-26 13:15:00,72.6,55.0,30.31,ESE,107,0.0,5.0,54,0.00,,FEW042,0.00,VWS V14.01,2013-04-26 17:15:00,
2013-04-26 13:25:00,72.9,53.7,30.32,East,95,0.0,4.0,51,0.00,,FEW042,0.00,VWS V14.01,2013-04-26 17:25:00,
2013-04-26 13:30:00,72.8,54.2,30.31,ESE,102,0.0,4.0,52,0.00,,FEW042,0.00,VWS V14.01,2013-04-26 17:30:00,
2013-04-26 13:39:00,73.2,53.5,30.31,ESE,106,2.0,5.0,50,0.00,,FEW042,0.00,VWS V14.01,2013-04-26 17:39:00,
2013-04-26 13:45:00,72.9,53.7,30.32,ENE,71,0.0,5.0,51,0.00,,FEW042,0.00,VWS V14.01,2013-04-26 17:45:00,
2013-04-26 13:53:00,73.0,52.7,30.32,ENE,71,0.0,2.0,49,0.00,,FEW042,0.00,VWS V14.01,2013-04-26 17:53:00,
2013-04-26 14:00:00,73.3,53.6,30.32,ENE,74,0.0,4.0,50,0.00,,FEW042,0.00,VWS V14.01,2013-04-26 18:00:00,
2013-04-26 14:07:00,73.9,53.6,30.31,ESE,111,2.0,3.0,49,0.00,,FEW050,0.00,VWS V14.01,2013-04-26 18:07:00,
2013-04-26 14:15:00,73.9,53.0,30.31,East,80,2.0,5.0,48,0.00,,FEW050,0.00,VWS V14.01,2013-04-26 18:15:00,
2013-04-26 14:21:00,73.9,52.4,30.31,East,85,4.0,4.0,47,0.00,,FEW050,0.00,VWS V14.01,2013-04-26 18:21:00,
2013-04-26 14:30:00,74.0,52.5,30.31,ESE,106,1.0,4.0,47,0.00,,FEW050,0.00,VWS V14.01,2013-04-26 18:30:00,
2013-04-26 14:39:00,74.2,53.8,30.31,East,100,1.0,4.0,49,0.00,,FEW050,0.00,VWS V14.01,2013-04-26 18:39:00,
2013-04-26 14:45:00,74.7,52.6,30.31,East,98,0.0,4.0,46,0.00,,FEW050,0.00,VWS V14.01,2013-04-26 18:45:00,
2013-04-26 14:53:00,74.6,52.5,30.30,ENE,63,2.0,4.0,46,0.00,,FEW050,0.00,VWS V14.01,2013-04-26 18:53:00,
2013-04-26 15:00:00,74.6,52.5,30.30,NNE,12,2.0,4.0,46,0.00,,FEW050,0.00,VWS V14.01,2013-04-26 19:00:00,
2013-04-26 15:07:00,74.6,52.5,30.30,NW,304,1.0,3.0,46,0.00,,FEW050,0.00,VWS V14.01,2013-04-26 19:07:00,
2013-04-26 15:15:00,74.6,51.9,30.29,ENE,69,0.0,4.0,45,0.00,,FEW050,0.00,VWS V14.01,2013-04-26 19:15:00,
2013-04-26 15:21:00,74.7,50.7,30.29,ENE,65,0.0,4.0,43,0.00,,FEW050,0.00,VWS V14.01,2013-04-26 19:21:00,
2013-04-26 15:30:00,75.0,51.6,30.29,ENE,65,0.0,4.0,44,0.00,,FEW050,0.00,VWS V14.01,2013-04-26 19:30:00,
2013-04-26 15:35:00,75.5,52.1,30.28,ENE,77,0.0,1.0,44,0.00,,FEW050,0.00,VWS V14.01,2013-04-26 19:35:00,
2013-04-26 15:44:00,76.2,52.7,30.28,ENE,77,1.0,2.0,44,0.00,,FEW050,0.00,VWS V14.01,2013-04-26 19:44:00,
2013-04-26 15:45:00,76.2,52.1,30.28,ENE,77,2.0,2.0,43,0.00,,CLR,0.00,VWS V14.01,2013-04-26 19:45:00,
2013-04-26 15:54:00,75.5,51.5,30.28,NE,38,0.0,3.0,43,0.00,,FEW050,0.00,VWS V14.01,2013-04-26 19:54:00,
2013-04-26 16:00:00,75.5,52.1,30.28,NE,38,0.0,3.0,44,0.00,,FEW050,0.00,VWS V14.01,2013-04-26 20:00:00,
2013-04-26 16:08:00,76.5,51.7,30.27,NE,38,0.0,0.0,42,0.00,,FEW060,0.00,VWS V14.01,2013-04-26 20:08:00,
2013-04-26 16:15:00,76.7,51.2,30.27,NE,39,0.0,2.0,41,0.00,,FEW060,0.00,VWS V14.01,2013-04-26 20:15:00,
2013-04-26 16:22:00,75.9,50.5,30.27,ENE,67,0.0,2.0,41,0.00,,FEW060,0.00,VWS V14.01,2013-04-26 20:22:00,
2013-04-26 16:30:00,75.7,50.4,30.27,East,98,1.0,2.0,41,0.00,,FEW060,0.00,VWS V14.01,2013-04-26 20:30:00,
2013-04-26 16:36:00,75.9,51.8,30.27,SW,217,0.0,2.0,43,0.00,,FEW060,0.00,VWS V14.01,2013-04-26 20:36:00,
2013-04-26 16:45:00,76.2,52.1,30.26,SE,138,0.0,2.0,43,0.00,,FEW060,0.00,VWS V14.01,2013-04-26 20:45:00,
2013-04-26 16:54:00,76.4,51.0,30.26,East,98,0.0,3.0,41,0.00,,FEW060,0.00,VWS V14.01,2013-04-26 20:54:00,
2013-04-26 17:00:00,75.9,51.8,30.26,East,98,0.0,3.0,43,0.00,,FEW060,0.00,VWS V14.01,2013-04-26 21:00:00,
2013-04-26 17:08:00,75.0,50.4,30.26,East,98,0.0,4.0,42,0.00,,CLR,0.00,VWS V14.01,2013-04-26 21:08:00,
2013-04-26 17:15:00,74.6,51.9,30.26,East,98,0.0,4.0,45,0.00,,CLR,0.00,VWS V14.01,2013-04-26 21:15:00,
2013-04-26 17:22:00,74.5,51.8,30.26,East,98,0.0,1.0,45,0.00,,CLR,0.00,VWS V14.01,2013-04-26 21:22:00,
2013-04-26 17:30:00,74.4,52.3,30.25,East,98,0.0,1.0,46,0.00,,CLR,0.00,VWS V14.01,2013-04-26 21:30:00,
2013-04-26 17:36:00,74.2,51.5,30.26,East,98,0.0,1.0,45,0.00,,CLR,0.00,VWS V14.01,2013-04-26 21:36:00,
2013-04-26 17:45:00,73.8,50.5,30.26,East,98,0.0,1.0,44,0.00,,CLR,0.00,VWS V14.01,2013-04-26 21:45:00,
2013-04-26 17:50:00,73.5,50.3,30.25,ESE,107,0.0,1.0,44,0.00,,CLR,0.00,VWS V14.01,2013-04-26 21:50:00,
2013-04-26 17:59:00,73.2,51.2,30.25,ESE,108,0.0,1.0,46,0.00,,CLR,0.00,VWS V14.01,2013-04-26 21:59:00,
2013-04-26 18:00:00,73.1,50.5,30.25,ESE,108,0.0,1.0,45,0.00,,CLR,0.00,VWS V14.01,2013-04-26 22:00:00,
2013-04-26 18:08:00,72.8,50.8,30.25,ESE,107,0.0,1.0,46,0.00,,CLR,0.00,VWS V14.01,2013-04-26 22:08:00,
2013-04-26 18:15:00,72.5,51.7,30.26,ESE,107,0.0,1.0,48,0.00,,CLR,0.00,VWS V14.01,2013-04-26 22:15:00,
2013-04-26 18:22:00,72.2,50.9,30.25,ESE,107,0.0,0.0,47,0.00,,CLR,0.00,VWS V14.01,2013-04-26 22:22:00,
2013-04-26 18:30:00,71.9,51.7,30.25,ESE,108,0.0,0.0,49,0.00,,CLR,0.00,VWS V14.01,2013-04-26 22:30:00,
2013-04-26 18:36:00,71.6,52.5,30.25,ESE,108,0.0,0.0,51,0.00,,CLR,0.00,VWS V14.01,2013-04-26 22:36:00,
2013-04-26 18:45:00,71.2,52.2,30.25,ESE,108,0.0,0.0,51,0.00,,CLR,0.00,VWS V14.01,2013-04-26 22:45:00,
2013-04-26 18:50:00,70.8,52.8,30.26,ESE,107,0.0,0.0,53,0.00,,CLR,0.00,VWS V14.01,2013-04-26 22:50:00,
2013-04-26 18:59:00,70.0,52.6,30.26,ESE,107,0.0,0.0,54,0.00,,CLR,0.00,VWS V14.01,2013-04-26 22:59:00,
2013-04-26 19:00:00,70.0,52.6,30.26,ESE,108,0.0,0.0,54,0.00,,CLR,0.00,VWS V14.01,2013-04-26 23:00:00,
2013-04-26 19:09:00,69.5,53.1,30.26,ESE,107,0.0,0.0,56,0.00,,CLR,0.00,VWS V14.01,2013-04-26 23:09:00,
2013-04-26 19:15:00,69.1,52.8,30.26,ESE,108,0.0,0.0,56,0.00,,CLR,0.00,VWS V14.01,2013-04-26 23:15:00,
2013-04-26 19:23:00,68.6,52.8,30.26,ESE,108,0.0,0.0,57,0.00,,CLR,0.00,VWS V14.01,2013-04-26 23:23:00,
2013-04-26 19:30:00,68.1,53.2,30.27,ESE,107,0.0,0.0,59,0.00,,CLR,0.00,VWS V14.01,2013-04-26 23:30:00,
2013-04-26 19:37:00,67.7,53.8,30.27,ESE,108,0.0,0.0,61,0.00,,CLR,0.00,VWS V14.01,2013-04-26 23:37:00,
2013-04-26 19:45:00,67.2,52.9,30.27,ESE,108,0.0,0.0,60,0.00,,CLR,0.00,VWS V14.01,2013-04-26 23:45:00,
2013-04-26 19:51:00,66.8,52.9,30.27,ESE,108,0.0,0.0,61,0.00,,CLR,0.00,VWS V14.01,2013-04-26 23:51:00,
2013-04-26 20:00:00,66.2,53.7,30.28,ESE,108,0.0,0.0,64,0.00,,CLR,0.00,VWS V14.01,2013-04-27 00:00:00,
2013-04-26 20:10:00,65.3,52.4,30.28,ESE,107,0.0,0.0,63,0.00,,CLR,0.00,VWS V14.01,2013-04-27 00:10:00,
2013-04-26 20:15:00,64.8,52.8,30.28,ESE,108,0.0,0.0,65,0.00,,CLR,0.00,VWS V14.01,2013-04-27 00:15:00,
2013-04-26 20:24:00,63.9,51.9,30.28,ESE,107,0.0,0.0,65,0.00,,CLR,0.00,VWS V14.01,2013-04-27 00:24:00,
2013-04-26 20:30:00,63.6,50.4,30.29,ESE,108,0.0,0.0,62,0.00,,CLR,0.00,VWS V14.01,2013-04-27 00:30:00,
2013-04-26 20:38:00,63.4,49.7,30.29,ESE,107,0.0,0.0,61,0.00,,CLR,0.00,VWS V14.01,2013-04-27 00:38:00,
2013-04-26 20:45:00,63.3,50.1,30.29,ESE,107,0.0,0.0,62,0.00,,CLR,0.00,VWS V14.01,2013-04-27 00:45:00,
2013-04-26 20:52:00,63.2,49.1,30.30,ESE,108,0.0,0.0,60,0.00,,CLR,0.00,VWS V14.01,2013-04-27 00:52:00,
2013-04-26 21:00:00,63.4,48.4,30.30,ESE,107,0.0,0.0,58,0.00,,CLR,0.00,VWS V14.01,2013-04-27 01:00:00,
2013-04-26 21:06:00,63.5,48.5,30.30,ESE,107,0.0,0.0,58,0.00,,CLR,0.00,VWS V14.01,2013-04-27 01:06:00,
2013-04-26 21:15:00,63.5,48.9,30.30,ESE,108,0.0,0.0,59,0.00,,CLR,0.00,VWS V14.01,2013-04-27 01:15:00,
2013-04-26 21:24:00,63.2,48.7,30.31,ESE,108,0.0,0.0,59,0.00,,CLR,0.00,VWS V14.01,2013-04-27 01:24:00,
2013-04-26 21:30:00,62.9,48.8,30.31,ESE,108,0.0,0.0,60,0.00,,CLR,0.00,VWS V14.01,2013-04-27 01:30:00,
2013-04-26 21:38:00,62.4,48.8,30.31,ESE,108,0.0,0.0,61,0.00,,CLR,0.00,VWS V14.01,2013-04-27 01:38:00,
2013-04-26 21:45:00,62.0,48.0,30.31,ESE,108,0.0,0.0,60,0.00,,CLR,0.00,VWS V14.01,2013-04-27 01:45:00,
2013-04-26 21:52:00,61.8,47.3,30.31,ESE,108,0.0,0.0,59,0.00,,CLR,0.00,VWS V14.01,2013-04-27 01:52:00,
2013-04-26 22:00:00,61.5,47.1,30.32,ESE,108,0.0,0.0,59,0.00,,CLR,0.00,VWS V14.01,2013-04-27 02:00:00,
2013-04-26 22:06:00,61.2,47.2,30.31,ESE,108,0.0,0.0,60,0.00,,CLR,0.00,VWS V14.01,2013-04-27 02:06:00,
2013-04-26 22:15:00,60.8,47.7,30.31,ESE,107,0.0,0.0,62,0.00,,CLR,0.00,VWS V14.01,2013-04-27 02:15:00,
2013-04-26 22:20:00,60.6,47.1,30.31,ESE,108,0.0,0.0,61,0.00,,CLR,0.00,VWS V14.01,2013-04-27 02:20:00,
2013-04-26 22:30:00,60.2,47.2,30.31,ESE,107,0.0,0.0,62,0.00,,CLR,0.00,VWS V14.01,2013-04-27 02:30:00,
2013-04-26 22:39:00,59.8,46.8,30.30,ESE,107,0.0,0.0,62,0.00,,CLR,0.00,VWS V14.01,2013-04-27 02:39:00,
2013-04-26 22:45:00,59.7,46.7,30.30,ESE,108,0.0,0.0,62,0.00,,CLR,0.00,VWS V14.01,2013-04-27 02:45:00,
2013-04-26 22:53:00,59.6,47.0,30.30,ESE,107,0.0,0.0,63,0.00,,CLR,0.00,VWS V14.01,2013-04-27 02:53:00,
2013-04-26 23:00:00,59.5,46.9,30.30,ESE,108,0.0,0.0,63,0.00,,CLR,0.00,VWS V14.01,2013-04-27 03:00:00,
2013-04-26 23:07:00,59.5,47.7,30.30,ESE,107,0.0,0.0,65,0.00,,CLR,0.00,VWS V14.01,2013-04-27 03:07:00,
2013-04-26 23:15:00,59.2,48.7,30.29,ESE,108,0.0,0.0,68,0.00,,CLR,0.00,VWS V14.01,2013-04-27 03:15:00,
2013-04-26 23:21:00,59.1,49.3,30.30,ESE,108,0.0,0.0,70,0.00,,CLR,0.00,VWS V14.01,2013-04-27 03:21:00,
2013-04-26 23:30:00,59.0,48.9,30.30,ESE,107,0.0,0.0,69,0.00,,CLR,0.00,VWS V14.01,2013-04-27 03:30:00,
2013-04-26 23:35:00,58.7,48.2,30.29,ESE,108,0.0,0.0,68,0.00,,CLR,0.00,VWS V14.01,2013-04-27 03:35:00,
2013-04-26 23:44:00,58.1,48.8,30.29,ESE,108,0.0,0.0,71,0.00,,CLR,0.00,VWS V14.01,2013-04-27 03:44:00,
2013-04-26 23:45:00,58.2,48.5,30.29,ESE,108,0.0,0.0,70,0.00,,CLR,0.00,VWS V14.01,2013-04-27 03:45:00,
2013-04-26 23:54:00,57.7,48.4,30.29,ESE,107,0.0,0.0,71,0.00,,CLR,0.00,VWS V14.01,2013-04-27 03:54:00,